createdAt,value
2023-05-10T00:00:10.155Z,39.42
2023-05-10T00:02:36.938Z,31.13
2023-05-10T00:05:03.570Z,27.08
2023-05-10T00:07:29.954Z,30.80
2023-05-10T00:09:56.324Z,27.60
2023-05-10T00:12:22.699Z,26.35
2023-05-10T00:14:49.158Z,34.83
2023-05-10T00:17:15.734Z,60.55
2023-05-10T00:19:42.257Z,28.92
2023-05-10T00:22:08.696Z,25.67
2023-05-10T00:24:35.072Z,23.60
2023-05-10T00:27:01.651Z,27.48
2023-05-10T00:29:29.292Z,28.45
2023-05-10T00:34:22.490Z,30.67
2023-05-10T00:36:48.880Z,31.85
2023-05-10T00:39:15.374Z,35.70
2023-05-10T00:41:41.748Z,34.70
2023-05-10T00:44:08.223Z,41.33
2023-05-10T00:46:35.248Z,37.50
2023-05-10T00:49:02.127Z,38.47
2023-05-10T00:51:28.902Z,43.53
2023-05-10T00:53:56.933Z,51.28
2023-05-10T00:56:24.210Z,54.45
2023-05-10T00:58:51.218Z,48.45
2023-05-10T01:01:17.603Z,54.60
2023-05-10T01:03:44.658Z,52.00
2023-05-10T01:06:11.258Z,59.38
2023-05-10T01:08:37.911Z,52.53
2023-05-10T01:11:04.381Z,63.92
2023-05-10T01:13:38.912Z,61.22
2023-05-10T01:16:07.350Z,58.42
2023-05-10T01:18:44.361Z,59.65
2023-05-10T01:21:34.031Z,60.17
2023-05-10T01:24:06.421Z,58.20
2023-05-10T01:27:07.069Z,58.83
2023-05-10T01:30:21.746Z,52.83
2023-05-10T01:33:07.669Z,54.53
2023-05-10T01:35:41.162Z,56.97
2023-05-10T01:38:07.512Z,58.47
2023-05-10T01:40:40.516Z,58.90
2023-05-10T01:43:17.897Z,59.00
2023-05-10T01:45:54.293Z,50.60
2023-05-10T01:48:22.094Z,59.58
2023-05-10T01:50:50.529Z,56.30
2023-05-10T01:53:21.272Z,64.10
2023-05-10T01:55:50.174Z,59.65
2023-05-10T01:58:22.108Z,60.42
2023-05-10T02:00:51.538Z,59.30
2023-05-10T02:03:21.507Z,54.47
2023-05-10T02:05:50.489Z,60.25
2023-05-10T02:08:19.013Z,52.97
2023-05-10T02:10:47.445Z,62.05
2023-05-10T02:13:16.515Z,62.45
2023-05-10T02:15:44.189Z,53.85
2023-05-10T02:18:12.710Z,55.83
2023-05-10T02:20:39.847Z,61.38
2023-05-10T02:23:08.553Z,60.05
2023-05-10T02:25:35.487Z,59.65
2023-05-10T02:28:06.008Z,53.83
2023-05-10T02:30:35.193Z,59.42
2023-05-10T02:33:04.724Z,54.95
2023-05-10T02:35:34.258Z,57.55
2023-05-10T02:38:01.671Z,62.47
2023-05-10T02:40:29.056Z,55.83
2023-05-10T02:42:57.367Z,67.28
2023-05-10T02:45:29.098Z,56.67
2023-05-10T02:47:56.194Z,62.53
2023-05-10T02:50:23.604Z,55.65
2023-05-10T02:52:55.325Z,57.65
2023-05-10T02:55:33.156Z,60.38
2023-05-10T02:58:01.904Z,62.30
2023-05-10T03:00:28.661Z,68.05
2023-05-10T03:02:55.828Z,62.60
2023-05-10T03:05:22.398Z,55.42
2023-05-10T03:07:49.393Z,65.60
2023-05-10T03:10:16.191Z,66.07
2023-05-10T03:12:51.118Z,74.63
2023-05-10T03:15:33.159Z,62.85
2023-05-10T03:18:38.227Z,62.05
2023-05-10T03:21:08.817Z,63.22
2023-05-10T03:23:41.484Z,57.67
2023-05-10T03:26:09.057Z,63.35
2023-05-10T03:31:05.324Z,60.17
2023-05-10T03:33:31.846Z,55.80
2023-05-10T03:35:58.228Z,67.07
2023-05-10T03:38:24.715Z,68.30
2023-05-10T03:40:51.101Z,77.15
2023-05-10T03:43:17.453Z,67.93
2023-05-10T03:45:43.840Z,72.90
2023-05-10T03:48:10.230Z,60.50
2023-05-10T03:50:36.752Z,70.03
2023-05-10T03:53:03.141Z,58.53
2023-05-10T03:55:30.552Z,76.07
2023-05-10T03:57:56.935Z,73.10
2023-05-10T04:00:23.320Z,71.68
2023-05-10T04:02:49.905Z,68.38
2023-05-10T04:05:16.764Z,70.10
2023-05-10T04:07:43.232Z,73.18
2023-05-10T04:10:09.863Z,81.97
2023-05-10T04:12:36.267Z,81.88
2023-05-10T04:15:02.689Z,80.10
2023-05-10T04:17:29.132Z,77.07
2023-05-10T04:19:56.676Z,78.20
2023-05-10T04:22:23.009Z,85.75
2023-05-10T04:24:49.407Z,72.45
2023-05-10T04:27:15.764Z,67.50
2023-05-10T04:29:42.528Z,74.03
2023-05-10T04:32:09.001Z,70.68
2023-05-10T04:34:35.433Z,78.20
2023-05-10T04:37:01.974Z,83.50
2023-05-10T04:39:28.441Z,75.65
2023-05-10T04:41:55.224Z,78.75
2023-05-10T04:44:21.671Z,75.32
2023-05-10T04:46:48.178Z,79.68
2023-05-10T04:49:15.711Z,73.47
2023-05-10T04:51:42.059Z,77.57
2023-05-10T04:54:08.491Z,79.20
2023-05-10T04:56:35.101Z,80.53
2023-05-10T04:59:01.516Z,81.30
2023-05-10T05:01:28.097Z,82.07
2023-05-10T05:03:54.716Z,96.72
2023-05-10T05:06:25.779Z,82.97
2023-05-10T05:08:52.472Z,77.55
2023-05-10T05:11:18.986Z,76.10
2023-05-10T05:13:45.493Z,85.43
2023-05-10T05:16:12.381Z,79.40
2023-05-10T05:18:39.187Z,86.30
2023-05-10T05:21:18.139Z,75.00
2023-05-10T05:23:44.915Z,72.82
2023-05-10T05:26:11.850Z,76.60
2023-05-10T05:28:38.648Z,68.25
2023-05-10T05:31:06.462Z,68.45
2023-05-10T05:33:33.175Z,61.58
2023-05-10T05:36:01.932Z,58.53
2023-05-10T05:38:28.323Z,64.35
2023-05-10T05:40:54.677Z,68.75
2023-05-10T05:43:21.088Z,71.70
2023-05-10T05:45:47.451Z,73.45
2023-05-10T05:48:13.983Z,70.53
2023-05-10T05:50:40.364Z,64.38
2023-05-10T05:53:06.746Z,68.68
2023-05-10T05:55:33.403Z,73.55
2023-05-10T05:57:59.942Z,59.47
2023-05-10T06:00:26.915Z,57.30
2023-05-10T06:02:53.446Z,61.97
2023-05-10T06:05:20.253Z,54.40
2023-05-10T06:07:47.005Z,52.35
2023-05-10T06:10:13.421Z,56.92
2023-05-10T06:12:39.960Z,53.28
2023-05-10T06:15:06.822Z,58.03
2023-05-10T06:17:33.251Z,56.30
2023-05-10T06:19:59.813Z,54.58
2023-05-10T06:22:26.254Z,58.97
2023-05-10T06:24:52.958Z,51.20
2023-05-10T06:27:19.589Z,51.72
2023-05-10T06:29:45.923Z,48.00
2023-05-10T06:32:12.477Z,49.95
2023-05-10T06:34:38.989Z,50.60
2023-05-10T06:37:05.593Z,50.20
2023-05-10T06:39:31.989Z,40.00
2023-05-10T06:41:58.330Z,38.13
2023-05-10T06:44:24.719Z,39.53
2023-05-10T06:46:51.541Z,37.40
2023-05-10T06:49:18.130Z,31.52
2023-05-10T06:51:44.815Z,33.00
2023-05-10T06:54:11.233Z,30.33
2023-05-10T06:56:37.711Z,27.58
2023-05-10T06:59:04.124Z,26.50
2023-05-10T07:01:30.770Z,26.38
2023-05-10T07:03:57.542Z,24.52
2023-05-10T07:06:33.097Z,22.83
2023-05-10T07:09:01.309Z,28.88
2023-05-10T07:11:27.934Z,23.42
2023-05-10T07:13:54.267Z,20.45
2023-05-10T07:16:20.854Z,22.73
2023-05-10T07:18:47.372Z,18.45
2023-05-10T07:21:13.868Z,20.85
2023-05-10T07:23:40.715Z,20.88
2023-05-10T07:26:07.993Z,19.55
2023-05-10T07:28:34.622Z,20.35
2023-05-10T07:31:01.058Z,28.95
2023-05-10T07:33:27.434Z,18.83
2023-05-10T07:35:54.498Z,19.25
2023-05-10T07:38:20.830Z,19.73
2023-05-10T07:40:47.184Z,21.67
2023-05-10T07:43:13.538Z,21.23
2023-05-10T07:45:39.879Z,21.23
2023-05-10T07:48:06.556Z,23.85
2023-05-10T07:50:33.140Z,22.75
2023-05-10T07:52:59.551Z,24.60
2023-05-10T07:55:25.969Z,20.30
2023-05-10T07:57:52.304Z,24.17
2023-05-10T08:00:20.227Z,22.15
2023-05-10T08:02:47.554Z,24.15
2023-05-10T08:05:14.516Z,21.20
2023-05-10T08:07:41.116Z,21.30
2023-05-10T08:10:08.407Z,17.48
2023-05-10T08:12:34.726Z,18.50
2023-05-10T08:15:01.103Z,19.35
2023-05-10T08:17:27.495Z,17.02
2023-05-10T08:19:53.871Z,18.30
2023-05-10T08:22:20.257Z,20.15
2023-05-10T08:24:46.762Z,18.73
2023-05-10T08:27:13.702Z,20.60
2023-05-10T08:29:49.657Z,19.23
2023-05-10T08:32:16.758Z,20.63
2023-05-10T08:34:43.157Z,20.90
2023-05-10T08:37:09.727Z,21.00
2023-05-10T08:39:36.646Z,19.92
2023-05-10T08:42:05.805Z,18.38
2023-05-10T08:44:36.168Z,19.42
2023-05-10T08:47:06.141Z,23.00
2023-05-10T08:49:33.929Z,23.45
2023-05-10T08:52:06.593Z,19.75
2023-05-10T08:54:34.334Z,23.90
2023-05-10T08:57:01.192Z,21.67
2023-05-10T08:59:28.502Z,18.13
2023-05-10T09:01:58.167Z,18.92
2023-05-10T09:04:25.215Z,21.95
2023-05-10T09:06:51.862Z,19.85
2023-05-10T09:09:20.030Z,17.58
2023-05-10T09:11:47.106Z,16.48
2023-05-10T09:14:13.999Z,18.33
2023-05-10T09:16:42.126Z,15.23
2023-05-10T09:19:09.719Z,16.17
2023-05-10T09:21:40.165Z,17.95
2023-05-10T09:24:08.550Z,20.65
2023-05-10T09:26:36.794Z,15.45
2023-05-10T09:29:04.165Z,11.25
2023-05-10T09:36:57.994Z,10.95
2023-05-10T09:39:38.262Z,10.10
2023-05-10T09:42:07.284Z,9.23
2023-05-10T09:44:35.070Z,7.80
2023-05-10T09:47:02.479Z,7.45
2023-05-10T09:49:29.672Z,7.15
2023-05-10T09:52:02.216Z,8.70
2023-05-10T09:54:28.604Z,7.85
2023-05-10T09:56:54.932Z,8.02
2023-05-10T09:59:21.393Z,9.60
2023-05-10T10:02:06.195Z,10.80
2023-05-10T10:04:33.066Z,8.02
2023-05-10T10:07:01.941Z,10.45
2023-05-10T10:09:29.060Z,8.23
2023-05-10T10:11:55.447Z,7.65
2023-05-10T10:14:23.785Z,14.48
2023-05-10T10:17:05.728Z,10.18
2023-05-10T10:19:37.611Z,14.18
2023-05-10T10:22:04.944Z,12.65
2023-05-10T10:24:31.390Z,11.77
2023-05-10T10:27:05.591Z,10.70
2023-05-10T10:29:51.029Z,11.30
2023-05-10T10:32:36.781Z,12.10
2023-05-10T10:35:03.733Z,11.40
2023-05-10T10:37:51.344Z,9.77
2023-05-10T10:43:28.165Z,11.50
2023-05-10T10:46:15.180Z,9.93
2023-05-10T10:48:47.929Z,13.35
2023-05-10T10:51:14.772Z,10.85
2023-05-10T10:53:41.972Z,11.02
2023-05-10T10:56:14.652Z,11.95
2023-05-10T10:58:41.697Z,10.15
2023-05-10T11:01:19.497Z,11.82
2023-05-10T11:04:01.694Z,9.13
2023-05-10T11:06:35.869Z,9.70
2023-05-10T11:09:10.073Z,10.30
2023-05-10T11:11:49.159Z,10.60
2023-05-10T11:14:20.573Z,10.88
2023-05-10T11:16:47.097Z,10.80
2023-05-10T11:19:15.271Z,10.23
2023-05-10T11:22:06.504Z,9.05
2023-05-10T11:24:34.794Z,11.77
2023-05-10T11:27:01.813Z,11.52
2023-05-10T11:29:28.370Z,11.68
2023-05-10T11:31:58.801Z,10.95
2023-05-10T11:34:34.248Z,12.13
2023-05-10T11:37:00.760Z,11.02
2023-05-10T11:39:29.011Z,9.90
2023-05-10T11:41:55.586Z,11.93
2023-05-10T11:44:21.980Z,12.80
2023-05-10T11:46:49.800Z,9.43
2023-05-10T11:49:16.316Z,10.85
2023-05-10T11:51:44.643Z,9.60
2023-05-10T11:54:12.168Z,8.90
2023-05-10T11:56:40.243Z,11.90
2023-05-10T11:59:07.440Z,9.82
2023-05-10T12:01:34.573Z,8.13
2023-05-10T12:04:02.179Z,10.48
2023-05-10T12:06:31.908Z,10.65
2023-05-10T12:08:59.015Z,8.02
2023-05-10T12:11:28.048Z,9.13
2023-05-10T12:13:55.843Z,8.68
2023-05-10T12:16:24.419Z,8.52
2023-05-10T12:18:55.627Z,8.35
2023-05-10T12:21:22.237Z,9.10
2023-05-10T12:23:53.663Z,8.27
2023-05-10T12:26:24.158Z,9.38
2023-05-10T12:28:50.871Z,9.52
2023-05-10T12:31:17.376Z,11.45
2023-05-10T12:33:46.208Z,8.55
2023-05-10T12:36:14.321Z,7.35
2023-05-10T12:38:44.215Z,7.72
2023-05-10T12:41:15.753Z,9.00
2023-05-10T12:43:42.820Z,7.30
2023-05-10T12:46:11.260Z,7.32
2023-05-10T12:48:38.985Z,7.78
2023-05-10T12:51:06.186Z,9.18
2023-05-10T12:53:32.779Z,7.13
2023-05-10T12:55:59.186Z,6.90
2023-05-10T12:58:35.051Z,8.23
2023-05-10T13:01:02.602Z,8.73
2023-05-10T13:03:28.963Z,8.13
2023-05-10T13:05:55.386Z,5.10
2023-05-10T13:08:21.760Z,6.75
2023-05-10T13:10:48.219Z,5.97
2023-05-10T13:13:15.370Z,6.28
2023-05-10T13:15:41.962Z,7.90
2023-05-10T13:18:09.162Z,4.90
2023-05-10T13:20:36.033Z,5.55
2023-05-10T13:23:03.453Z,6.80
2023-05-10T13:25:29.933Z,6.07
2023-05-10T13:27:56.373Z,5.32
2023-05-10T13:32:56.463Z,10.25
2023-05-10T13:35:22.975Z,11.85
2023-05-10T13:37:49.304Z,11.88
2023-05-10T13:40:16.669Z,13.48
2023-05-10T13:42:43.436Z,12.48
2023-05-10T13:45:10.706Z,12.25
2023-05-10T13:50:04.278Z,12.25
2023-05-10T13:52:30.625Z,14.80
2023-05-10T13:54:58.126Z,11.68
2023-05-10T13:57:25.056Z,12.48
2023-05-10T13:59:53.169Z,13.75
2023-05-10T14:02:22.523Z,13.43
2023-05-10T14:04:49.265Z,15.93
2023-05-10T14:07:15.647Z,16.75
2023-05-10T14:09:42.077Z,13.95
2023-05-10T14:12:17.262Z,13.35
2023-05-10T14:14:43.628Z,12.68
2023-05-10T14:17:12.195Z,12.02
2023-05-10T14:19:39.732Z,18.95
2023-05-10T14:22:06.448Z,15.10
2023-05-10T14:24:33.337Z,12.45
2023-05-10T14:27:36.043Z,13.77
2023-05-10T14:30:02.498Z,12.45
2023-05-10T14:32:29.353Z,13.82
2023-05-10T14:34:55.897Z,14.55
2023-05-10T14:37:22.266Z,14.73
2023-05-10T14:39:48.600Z,14.55
2023-05-10T14:42:14.948Z,12.77
2023-05-10T14:44:41.271Z,11.77
2023-05-10T14:47:08.091Z,16.15
2023-05-10T14:49:35.216Z,11.88
2023-05-10T14:52:01.688Z,14.13
2023-05-10T14:54:28.423Z,15.48
2023-05-10T14:56:54.789Z,14.05
2023-05-10T14:59:21.518Z,14.70
2023-05-10T15:01:48.229Z,14.38
2023-05-10T15:04:17.255Z,16.15
2023-05-10T15:06:44.170Z,20.00
2023-05-10T15:09:10.840Z,15.43
2023-05-10T15:11:37.264Z,15.05
2023-05-10T15:14:03.686Z,16.60
2023-05-10T15:16:30.341Z,13.73
2023-05-10T15:18:57.655Z,16.73
2023-05-10T15:21:24.027Z,17.63
2023-05-10T15:23:50.391Z,13.65
2023-05-10T15:26:16.818Z,18.80
2023-05-10T15:28:43.831Z,12.52
2023-05-10T15:31:10.331Z,17.20
2023-05-10T15:33:39.663Z,15.07
2023-05-10T15:36:06.149Z,15.23
2023-05-10T15:38:32.563Z,14.50
2023-05-10T15:40:59.179Z,12.63
2023-05-10T15:43:25.821Z,15.55
2023-05-10T15:45:52.215Z,14.32
2023-05-10T15:48:18.575Z,15.15
2023-05-10T15:50:45.014Z,12.52
2023-05-10T15:53:11.374Z,13.05
2023-05-10T15:55:37.709Z,12.68
2023-05-10T15:58:04.238Z,11.85
2023-05-10T16:00:30.685Z,13.02
2023-05-10T16:02:57.381Z,14.82
2023-05-10T16:05:24.210Z,12.93
2023-05-10T16:07:50.550Z,12.48
2023-05-10T16:10:16.920Z,13.15
2023-05-10T16:12:43.425Z,12.43
2023-05-10T16:15:10.402Z,13.10
2023-05-10T16:17:37.433Z,14.52
2023-05-10T16:20:05.058Z,11.48
2023-05-10T16:22:31.484Z,12.88
2023-05-10T16:24:59.682Z,11.38
2023-05-10T16:27:28.777Z,10.63
2023-05-10T16:29:55.347Z,11.70
2023-05-10T16:32:21.798Z,11.75
2023-05-10T16:34:48.213Z,10.98
2023-05-10T16:37:14.625Z,13.30
2023-05-10T16:39:41.169Z,13.60
2023-05-10T16:42:07.686Z,9.43
2023-05-10T16:44:34.162Z,11.55
2023-05-10T16:47:00.507Z,10.93
2023-05-10T16:49:27.032Z,11.35
2023-05-10T16:51:53.584Z,11.23
2023-05-10T16:54:21.844Z,10.30
2023-05-10T16:56:48.267Z,11.32
2023-05-10T16:59:14.606Z,11.32
2023-05-10T17:01:41.088Z,10.25
2023-05-10T17:04:07.712Z,11.43
2023-05-10T17:06:36.037Z,11.38
2023-05-10T17:09:04.001Z,10.55
2023-05-10T17:11:30.449Z,8.85
2023-05-10T17:13:57.324Z,9.70
2023-05-10T17:16:27.292Z,8.82
2023-05-10T17:18:53.792Z,10.13
2023-05-10T17:21:20.396Z,11.50
2023-05-10T17:23:46.807Z,11.30
2023-05-10T17:26:13.227Z,8.98
2023-05-10T17:28:39.611Z,9.30
2023-05-10T17:31:06.011Z,8.63
2023-05-10T17:33:32.481Z,10.90
2023-05-10T17:35:58.987Z,10.18
2023-05-10T17:38:25.419Z,9.68
2023-05-10T17:40:51.797Z,9.38
2023-05-10T17:43:18.224Z,14.15
2023-05-10T17:45:47.916Z,12.32
2023-05-10T17:48:14.425Z,14.02
2023-05-10T17:50:44.467Z,16.20
2023-05-10T17:53:11.125Z,14.73
2023-05-10T17:55:41.117Z,15.57
2023-05-10T17:58:08.293Z,13.27
2023-05-10T18:00:34.758Z,13.85
2023-05-10T18:03:02.301Z,11.80
2023-05-10T18:05:28.785Z,11.73
2023-05-10T18:07:55.213Z,11.10
2023-05-10T18:10:21.897Z,13.77
2023-05-10T18:12:50.179Z,10.80
2023-05-10T18:15:17.007Z,12.15
2023-05-10T18:17:43.698Z,13.43
2023-05-10T18:20:10.527Z,13.02
2023-05-10T18:22:37.080Z,13.48
2023-05-10T18:25:04.508Z,12.10
2023-05-10T18:29:57.334Z,15.45
2023-05-10T18:32:24.062Z,11.68
2023-05-10T18:34:50.584Z,12.35
2023-05-10T18:37:16.961Z,13.40
2023-05-10T18:39:43.371Z,13.00
2023-05-10T18:42:09.953Z,17.38
2023-05-10T18:44:36.430Z,13.85
2023-05-10T18:47:02.838Z,15.07
2023-05-10T18:49:29.445Z,17.63
2023-05-10T18:51:56.055Z,17.20
2023-05-10T18:54:22.700Z,15.13
2023-05-10T18:56:49.761Z,14.13
2023-05-10T18:59:16.507Z,17.90
2023-05-10T19:01:43.158Z,16.95
2023-05-10T19:04:09.707Z,17.85
2023-05-10T19:06:36.581Z,15.43
2023-05-10T19:09:03.390Z,17.98
2023-05-10T19:11:32.294Z,14.23
2023-05-10T19:13:58.910Z,15.40
2023-05-10T19:16:26.266Z,15.18
2023-05-10T19:21:19.527Z,17.30
2023-05-10T19:23:47.381Z,16.98
2023-05-10T19:26:13.938Z,15.13
2023-05-10T19:28:40.344Z,15.07
2023-05-10T19:31:08.757Z,18.67
2023-05-10T19:33:36.119Z,18.17
2023-05-10T19:36:02.714Z,17.45
2023-05-10T19:38:29.314Z,18.60
2023-05-10T19:40:59.398Z,16.38
2023-05-10T19:43:26.874Z,16.70
2023-05-10T19:45:54.244Z,17.02
2023-05-10T19:48:20.798Z,18.58
2023-05-10T19:50:47.163Z,14.52
2023-05-10T19:53:13.531Z,15.93
2023-05-10T19:55:40.188Z,19.33
2023-05-10T20:00:38.148Z,15.95
2023-05-10T20:03:07.008Z,17.73
2023-05-10T20:05:35.546Z,21.08
2023-05-10T20:08:01.971Z,21.02
2023-05-10T20:10:28.448Z,19.70
2023-05-10T20:12:54.841Z,27.73
2023-05-10T20:15:22.951Z,24.52
2023-05-10T20:17:53.850Z,21.65
2023-05-10T20:20:21.218Z,22.40
2023-05-10T20:22:48.444Z,22.52
2023-05-10T20:25:16.356Z,16.98
2023-05-10T20:27:43.115Z,19.40
2023-05-10T20:30:10.545Z,14.18
2023-05-10T20:32:38.071Z,16.38
2023-05-10T20:37:31.772Z,15.30
2023-05-10T20:39:58.221Z,19.05
2023-05-10T20:42:24.645Z,14.88
2023-05-10T20:44:51.080Z,19.75
2023-05-10T20:47:18.203Z,20.20
2023-05-10T20:49:44.546Z,15.10
2023-05-10T20:52:10.930Z,18.33
2023-05-10T20:54:37.290Z,17.00
2023-05-10T20:57:03.701Z,18.83
2023-05-10T20:59:30.097Z,22.98
2023-05-10T21:01:57.460Z,17.02
2023-05-10T21:06:51.400Z,17.23
2023-05-10T21:09:17.794Z,19.63
2023-05-10T21:11:44.352Z,20.77
2023-05-10T21:14:10.730Z,20.42
2023-05-10T21:16:37.137Z,18.25
2023-05-10T21:19:03.655Z,19.85
2023-05-10T21:21:30.115Z,17.55
2023-05-10T21:23:56.609Z,17.55
2023-05-10T21:26:23.285Z,17.60
2023-05-10T21:28:49.711Z,19.67
2023-05-10T21:31:16.088Z,17.67
2023-05-10T21:33:42.592Z,20.00
2023-05-10T21:36:09.631Z,18.08
2023-05-10T21:38:36.154Z,18.30
2023-05-10T21:41:06.971Z,17.08
2023-05-10T21:43:33.672Z,22.52
2023-05-10T21:46:00.037Z,21.70
2023-05-10T21:48:26.393Z,17.55
2023-05-10T21:50:52.716Z,16.50
2023-05-10T21:53:19.125Z,17.92
2023-05-10T21:55:45.680Z,18.30
2023-05-10T21:58:12.031Z,21.08
2023-05-10T22:00:38.363Z,19.70
2023-05-10T22:03:04.795Z,19.88
2023-05-10T22:05:31.197Z,19.52
2023-05-10T22:07:57.545Z,18.95
2023-05-10T22:10:23.947Z,18.60
2023-05-10T22:12:50.420Z,16.30
2023-05-10T22:15:17.065Z,22.15
2023-05-10T22:17:43.470Z,18.30
2023-05-10T22:20:10.209Z,18.92
2023-05-10T22:22:36.733Z,19.52
2023-05-10T22:25:03.988Z,19.45
2023-05-10T22:27:30.508Z,20.45
2023-05-10T22:29:57.029Z,23.52
2023-05-10T22:32:23.422Z,22.02
2023-05-10T22:34:49.948Z,25.10
2023-05-10T22:37:17.920Z,19.85
2023-05-10T22:39:48.751Z,20.88
2023-05-10T22:42:15.528Z,21.08
2023-05-10T22:44:42.728Z,23.42
2023-05-10T22:47:09.262Z,24.08
2023-05-10T22:49:35.701Z,24.88
2023-05-10T22:52:02.344Z,23.67
2023-05-10T22:54:28.701Z,20.92
2023-05-10T22:56:56.392Z,22.00
2023-05-10T22:59:22.911Z,22.55
2023-05-10T23:01:49.308Z,23.88
2023-05-10T23:04:15.850Z,19.67
2023-05-10T23:06:42.403Z,21.88
2023-05-10T23:09:08.996Z,22.63
2023-05-10T23:11:35.421Z,20.40
2023-05-10T23:14:01.905Z,22.60
2023-05-10T23:16:28.348Z,22.08
2023-05-10T23:18:55.058Z,22.77
2023-05-10T23:21:21.511Z,20.30
2023-05-10T23:23:48.022Z,22.92
2023-05-10T23:26:14.611Z,18.10
2023-05-10T23:28:41.091Z,18.73
2023-05-10T23:31:07.549Z,19.13
2023-05-10T23:33:34.012Z,20.08
2023-05-10T23:36:00.401Z,16.17
2023-05-10T23:38:26.999Z,19.95
2023-05-10T23:40:53.441Z,19.45
2023-05-10T23:43:20.805Z,21.48
2023-05-10T23:45:57.419Z,22.33
2023-05-10T23:48:24.328Z,20.38
2023-05-10T23:50:50.947Z,20.27
2023-05-10T23:53:17.584Z,18.85
2023-05-10T23:55:44.537Z,19.98
2023-05-10T23:58:11.600Z,22.25
